Cape Romanzof Lrrs Airport
PACZ : now visible

Aeroporto :











RITROVATECI SU...

 
LOGIN :

Iscrizione | Disclaimer

   EN    FR    IT 

 









Sommario :    VFR   VFR Marginale   IFR   IFR Intensivo   IFR Molto Intensivo
Visibilità : 
Base nubi : 
>= 8 km
>= 3000ft
5 / 8 km
1000 / 3000 ft
1500m / 5 km
500 / 1000 ft
800 / 1500m
200 / 500 ft
< 800m
< 200 ft
Simboli :   Temporali  Nebbia  Neve Forte  Precipitazioni Forti  Vento > 20 kt






- Altitudine del aeroporto : 464 ft
- Codice IATA : CZF


PACZ - Cape Romanzof Lrrs

ULTIMO METAR :
  • 011855Z AUTO 20003KT 10SM CLR 10/04 A2952 RMK AO2 SLP996 T01000042

METARs OBSOLETI :
  • 011755Z AUTO 20002KT 10SM CLR 10/03 A2951 RMK AO2 SLP994 T00950034 10158 20083 52005
  • 011655Z AUTO 00000KT 10SM CLR 09/03 A2951 RMK AO2 SLP991 T00930025

Previsioni scadute.
FIR PAZA / America del Nord



MetMap, La meteo Aeronautica in un colpo d'occhio ! - Copyright ORBIFLY Dicembre 2007 - Disclaimer

ORBIFLY MET'MAP TEAM :

Programmazione e sviluppo : Alexandra Zaïnal
Concezione : Baudouin d'Aumeries
Aiuto per la programmazione : Marc-Olivier Méhu
Supporto tecnico e logistico : Manuel Goepfert
Aiuto per la traduzione : Arnaldo La Scala

Contatto : metmap@orbifly.com




FONTI E CREDITI :

   NOAA       Earth
Advisory